ミラノ・マルペンサ国際空港の過去48時間の天気

ミラノ・マルペンサ国際空港 (Milano / Malpensa)

現在時刻: 10/1 18:27 CEST (10/1 16:27 UTC) 以下の時間は現地時間です。

過去48時間のMETAR気象情報
時間 風向 風速(m/s) 視程 気温(℃) 湿度(%) 気圧(hPa) 天気現象
1 17:50 不定 1 10km以上 20 64 1006
1 17:20 南南東 2 10km以上 20 64 1006
1 16:50 南南東 2 10km以上 20 68 1007
1 16:20 南東 3 10km以上 20 73 1007
1 15:50 南東 2 10km以上 20 68 1007
1 15:20 南南西 2 10km以上 20 68 1007
1 14:50 南南西 2 10km以上 20 68 1007
1 14:20 不定 2 10km以上 20 68 1008
1 13:50 南南西 2 10km以上 19 73 1008
1 13:20 南南西 2 10km以上 19 73 1008
1 12:50 南南東 2 10km以上 19 73 1009
1 12:20 不定 1 10km以上 19 73 1009
1 11:50 不定 1 10km以上 18 77 1009
1 11:20 不定 1 10km以上 17 77 1009
1 10:50 不定 1 10km以上 17 77 1009
1 10:20 不定 1 10km以上 17 77 1009
1 09:50 不定 1 10km以上 16 82 1009
1 09:20 北東 1 10km以上 16 82 1009
1 08:50 北北西 1 10km以上 15 88 1009
1 08:20 1 10km以上 15 88 1009
1 07:50 北北東 1 10km以上 15 88 1009
1 07:20 2 10km以上 14 94 1009
1 06:50 北北東 1 10km以上 14 94 1009
1 06:20 北北東 2 10km以上 14 94 1009
1 05:50 北北東 1 10km以上 14 94 1009
1 05:20 2 10km以上 14 94 1010
1 04:50 北北東 2 10km以上 14 88 1010
1 04:20 北北東 2 10km以上 14 88 1010
1 03:50 2 10km以上 13 94 1010
1 03:20 2 10km以上 13 94 1011
1 02:50 北北東 3 10km以上 13 94 1011
1 02:20 2 10km以上 12 94 1011
1 01:50 北北東 2 10km以上 12 94 1012
1 01:20 東北東 2 10km以上 11 94 1012
1 00:50 2 10km以上 12 94 1012
1 00:20 不定 1 10km以上 13 94 1012
30 23:50 北北東 2 10km以上 13 88 1012
30 23:20 北北東 1 10km以上 13 94 1012
30 22:50 不定 1 10km以上 14 88 1012
30 22:20 不定 1 10km以上 16 82 1012
30 21:50 1 10km以上 16 82 1012
30 21:20 不定 1 10km以上 14 88 1012
30 20:50 北北東 2 10km以上 15 82 1012
30 20:20 北北東 1 10km以上 16 77 1012
30 19:50 不定 1 10km以上 18 68 1012
30 19:20 西南西 2 10km以上 20 56 1012
30 18:50 西南西 3 10km以上 20 56 1012
30 18:20 南西 3 10km以上 21 53 1012
30 17:50 西南西 3 10km以上 22 46 1012
30 17:20 南西 3 10km以上 22 50 1013
30 16:50 不定 2 10km以上 22 50 1013
30 16:20 南西 3 10km以上 22 50 1013
30 15:50 不定 2 10km以上 22 53 1013
30 15:20 不定 2 10km以上 22 53 1013
30 14:50 南南東 2 10km以上 22 57 1014
30 14:20 不定 2 10km以上 21 60 1014
30 13:50 不定 2 10km以上 20 64 1015
30 13:20 不定 2 10km以上 21 60 1015
30 12:50 南東 2 10km以上 20 60 1015
30 12:20 不定 2 10km以上 19 64 1015
30 11:50 不定 2 10km以上 19 64 1016
30 11:20 不定 1 10km以上 18 68 1016
30 10:50 不定 2 10km以上 18 68 1016
30 10:20 不定 1 10km以上 17 72 1016
30 09:50 不定 1 10km以上 16 77 1016
30 09:20 不定 1 10km以上 15 82 1016
30 08:50 2 10km以上 13 88 1016
30 08:20 2 10km以上 12 94 1016
30 07:50 3 10km以上 10 94 1016
30 07:20 2 10km以上 11 94 1016
30 06:50 北北東 2 10km以上 11 94 1016
30 06:20 北北東 2 10km以上 11 94 1016
30 05:50 2 10km以上 11 94 1016
30 05:20 北北東 3 10km以上 11 94 1016
30 04:50 3 10km以上 11 94 1016
30 04:20 3 10km以上 11 94 1016
30 03:50 3 10km以上 11 94 1016
30 03:20 3 10km以上 11 94 1016
30 02:50 北北東 2 10km以上 11 94 1017
30 02:20 北北東 2 10km以上 11 94 1017
30 01:50 3 10km以上 11 87 1017
30 01:20 3 10km以上 11 94 1017
30 00:50 北北東 1 10km以上 11 87 1017
30 00:20 北北東 1 10km以上 12 88 1017
29 23:50 北北東 2 10km以上 13 82 1017
29 23:20 北東 2 10km以上 13 88 1017
29 22:50 不定 1 10km以上 14 82 1017
29 22:20 北北東 2 10km以上 13 88 1017
29 21:50 不定 1 10km以上 14 82 1017
29 21:20 静穏 0 10km以上 14 82 1016
29 20:50 北北東 1 10km以上 14 82 1016
29 20:20 北北東 2 10km以上 15 77 1016
29 19:50 北北東 2 10km以上 16 72 1016
29 19:20 北西 2 10km以上 19 52 1016
29 18:50 西 2 10km以上 20 49 1016
LIMC 011550Z VRB01KT 9999 FEW025 SCT080 20/13 Q1006 NOSIG
LIMC 011520Z 15003KT 120V200 9999 FEW025 20/13 Q1006 NOSIG
LIMC 011450Z 15004KT 130V200 9999 FEW025 20/14 Q1007 NOSIG
LIMC 011420Z 14005KT 100V180 9999 FEW025 20/15 Q1007 NOSIG
LIMC 011350Z 14003KT 110V180 9999 FEW025 20/14 Q1007 NOSIG
LIMC 011320Z 21003KT 140V270 9999 FEW025 20/14 Q1007 NOSIG
LIMC 011250Z 20004KT 160V270 9999 FEW025 20/14 Q1007 NOSIG
LIMC 011220Z VRB03KT 9999 FEW025 20/14 Q1008 NOSIG
LIMC 011150Z 21004KT 170V240 9999 FEW025 BKN075 19/14 Q1008 NOSIG
LIMC 011120Z 20004KT 160V250 9999 BKN075 19/14 Q1008 NOSIG
LIMC 011050Z 16003KT 110V240 9999 BKN075 19/14 Q1009 NOSIG
LIMC 011020Z VRB02KT 9999 BKN070 19/14 Q1009 NOSIG
LIMC 010950Z VRB01KT 9999 BKN070 18/14 Q1009 NOSIG
LIMC 010920Z VRB02KT 9999 SCT050 BKN065 17/13 Q1009 NOSIG
LIMC 010850Z VRB02KT 9999 BKN050 17/13 Q1009 NOSIG
LIMC 010820Z VRB01KT 9999 BKN050 17/13 Q1009 NOSIG
LIMC 010750Z VRB01KT 9999 BKN050 16/13 Q1009 NOSIG
LIMC 010720Z 04002KT 9999 BKN050 16/13 Q1009 NOSIG
LIMC 010650Z 34002KT 9999 BKN050 15/13 Q1009 NOSIG
LIMC 010620Z 36002KT 9999 BKN050 15/13 Q1009 NOSIG
LIMC 010550Z 03002KT 9999 BKN050 15/13 Q1009 NOSIG
LIMC 010520Z 01003KT 9999 BKN050 14/13 Q1009 NOSIG
LIMC 010450Z 03002KT 9999 BKN050 14/13 Q1009 NOSIG
LIMC 010420Z 02003KT 9999 BKN050 14/13 Q1009 NOSIG
LIMC 010350Z 03002KT 9999 BKN050 14/13 Q1009 NOSIG
LIMC 010320Z 01003KT 9999 BKN050 14/13 Q1010 NOSIG
LIMC 010250Z 03003KT 9999 SCT050 14/12 Q1010 NOSIG
LIMC 010220Z 02004KT 9999 SCT050 14/12 Q1010 NOSIG
LIMC 010150Z 01004KT 9999 FEW040 13/12 Q1010 NOSIG
LIMC 010120Z 01004KT 9999 FEW050 13/12 Q1011 NOSIG
LIMC 010050Z 02005KT 9999 FEW040 13/12 Q1011 NOSIG
LIMC 010020Z 01004KT 9999 FEW040 12/11 Q1011 NOSIG
LIMC 302350Z 03003KT 9999 R35R/1400U R17L/P1500N R35L/P1500N FEW040 12/11 Q1012 NOSIG
LIMC 302320Z 06003KT 9999 FEW040 11/10 Q1012 NOSIG
LIMC 302250Z 01004KT 9999 R35R/1400U R17L/P1500N R35L/P1500N FEW040 12/11 Q1012 NOSIG
LIMC 302220Z VRB01KT CAVOK 13/12 Q1012 NOSIG
LIMC 302150Z 03003KT CAVOK 13/11 Q1012 NOSIG
LIMC 302120Z 03002KT 9999 FEW050 13/12 Q1012 NOSIG
LIMC 302050Z VRB02KT 9999 SCT040 14/12 Q1012 NOSIG
LIMC 302020Z VRB01KT 9999 SCT040 16/13 Q1012 NOSIG
LIMC 301950Z 19002KT CAVOK 16/13 Q1012 NOSIG
LIMC 301920Z VRB02KT 9999 SCT040 14/12 Q1012 NOSIG
LIMC 301850Z 02003KT CAVOK 15/12 Q1012 NOSIG
LIMC 301820Z 02002KT CAVOK 16/12 Q1012 NOSIG
LIMC 301750Z VRB02KT CAVOK 18/12 Q1012 NOSIG
LIMC 301720Z 25004KT CAVOK 20/11 Q1012 NOSIG
LIMC 301650Z 24005KT CAVOK 20/11 Q1012 NOSIG
LIMC 301620Z 23006KT CAVOK 21/11 Q1012 NOSIG
LIMC 301550Z 24006KT 210V270 CAVOK 22/10 Q1012 NOSIG
LIMC 301520Z 23005KT CAVOK 22/11 Q1013 NOSIG
LIMC 301450Z VRB03KT CAVOK 22/11 Q1013 NOSIG
LIMC 301420Z 22005KT CAVOK 22/11 Q1013 NOSIG
LIMC 301350Z VRB04KT CAVOK 22/12 Q1013 NOSIG
LIMC 301320Z VRB04KT 9999 SCT035 22/12 Q1013 NOSIG
LIMC 301250Z 15004KT 120V190 9999 SCT035 22/13 Q1014 NOSIG
LIMC 301220Z VRB03KT 9999 FEW035 21/13 Q1014 NOSIG
LIMC 301150Z VRB03KT CAVOK 20/13 Q1015 NOSIG
LIMC 301120Z VRB03KT CAVOK 21/13 Q1015 NOSIG
LIMC 301050Z 13003KT 080V220 CAVOK 20/12 Q1015 NOSIG
LIMC 301020Z VRB03KT CAVOK 19/12 Q1015 NOSIG
LIMC 300950Z VRB03KT CAVOK 19/12 Q1016 NOSIG
LIMC 300920Z VRB02KT CAVOK 18/12 Q1016 NOSIG
LIMC 300850Z VRB03KT CAVOK 18/12 Q1016 NOSIG
LIMC 300820Z VRB02KT CAVOK 17/12 Q1016 NOSIG
LIMC 300750Z VRB01KT CAVOK 16/12 Q1016 NOSIG
LIMC 300720Z VRB02KT CAVOK 15/12 Q1016 NOSIG
LIMC 300650Z 36003KT CAVOK 13/11 Q1016 NOSIG
LIMC 300620Z 01004KT CAVOK 12/11 Q1016 NOSIG
LIMC 300550Z 01005KT CAVOK 10/09 Q1016 NOSIG
LIMC 300520Z 01003KT CAVOK 11/10 Q1016 NOSIG
LIMC 300450Z 03003KT CAVOK 11/10 Q1016 NOSIG
LIMC 300420Z 02004KT 9999 FEW040 11/10 Q1016 NOSIG
LIMC 300350Z 01004KT CAVOK 11/10 Q1016 NOSIG
LIMC 300320Z 02005KT 9999 FEW040 11/10 Q1016 NOSIG
LIMC 300250Z 01005KT CAVOK 11/10 Q1016 NOSIG
LIMC 300220Z 01005KT CAVOK 11/10 Q1016 NOSIG
LIMC 300150Z 36005KT CAVOK 11/10 Q1016 NOSIG
LIMC 300120Z 01005KT CAVOK 11/10 Q1016 NOSIG
LIMC 300050Z 02003KT CAVOK 11/10 Q1017 NOSIG
LIMC 300020Z 02004KT CAVOK 11/10 Q1017 NOSIG
LIMC 292350Z 01005KT CAVOK 11/09 Q1017 NOSIG
LIMC 292320Z 36005KT CAVOK 11/10 Q1017 NOSIG
LIMC 292250Z 02002KT CAVOK 11/09 Q1017 NOSIG
LIMC 292220Z 02002KT CAVOK 12/10 Q1017 NOSIG
LIMC 292150Z 02003KT CAVOK 13/10 Q1017 NOSIG
LIMC 292120Z 04004KT CAVOK 13/11 Q1017 NOSIG
LIMC 292050Z VRB02KT CAVOK 14/11 Q1017 NOSIG
LIMC 292020Z 02003KT CAVOK 13/11 Q1017 NOSIG
LIMC 291950Z VRB01KT CAVOK 14/11 Q1017 NOSIG
LIMC 291920Z 00000KT CAVOK 14/11 Q1016 NOSIG
LIMC 291850Z 03002KT CAVOK 14/11 Q1016 NOSIG
LIMC 291820Z 03004KT CAVOK 15/11 Q1016 NOSIG
LIMC 291750Z 03003KT CAVOK 16/11 Q1016 NOSIG
LIMC 291720Z 31003KT CAVOK 19/09 Q1016 NOSIG
LIMC 291650Z 26004KT CAVOK 20/09 Q1016 NOSIG